LFBT/LDE METAR and TAF weather

Enter ICAO airport designator
Station Type Date Time Source
LFBT METAR 2021/05/10 21:30 UTC NOAA

LFBT 102130Z AUTO 27009G29KT 220V310 9999 FEW020/// BKN110/// ///CB 11/10 Q1009 TEMPO 4000 SHRA


Station Type Date Time Source
LFBT Decoded METAR 2021/05/10 21:30 UTC NOAA

Tarbes Ossun Lourdes, France (LFBT) 43-11N 000-00W 363M
May 10, 2021 - 05:30 PM EDT / 2021.05.10 2130 UTC
Wind: from the W (270 degrees) at 10 MPH (9 KT) gusting to 33 MPH (29 KT) (direction variable):0
Visibility: greater than 7 mile(s):0
Sky conditions: mostly cloudy
Weather: Cumulonimbus clouds observed
Temperature: 51 F (11 C)
Dew Point: 50 F (10 C)
Relative Humidity: 93%
Pressure (altimeter): 29.80 in. Hg (1009 hPa)
ob: LFBT 102130Z AUTO 27009G29KT 220V310 9999 FEW020/// BKN110/// ///CB 11/10 Q1009 TEMPO 4000 SHRA
cycle: 21

Station Type Date Time Source
LFBT TAF 2021/05/10 21:00 UTC NOAA

TAF
AMD LFBT 102150Z 1021/1118 08005KT 9999 SCT035
TEMPO 1021/1113 4000 SHRA BKN020TCU PROB40
TEMPO 1021/1023 27025G35KT 1500 TSRA BKN015 BKN040CB
BECMG 1104/1106 28012KT
TEMPO 1106/1114 27015G30KT

Example: see airport list